Sea Otter — WDH4842 — position and weather

sailwx.info

Track history (hours):
 
Tides and Currents Weather Stations Pressure Air Temp Water Temp Dewpoint Dewpoint Depression Visibility Wind Speed Wind Dir Waves Ship Positions

Sea Otter

Owner: GARBER BROTHERS INC, MORGAN CITY, LA. More information available from US FCC via Universal Licensing System and Coast Guard Vessel Documentation Center.

Last reported at 2018-Jul-22 08:36 UTC. Time now 2018-Jul-23 11:47 UTC.
Position N 29°33' W 090°41'.

Length 21 m.

Type: Other ship. MMSI: 367621940.

Date/timePositionNaut miles runAvg speedWind from/ knotsBaromVisibWave heightAir tempDewpointWater temp
2018-Jul-22 08:36N 29°33' W 090°41'0 0.1
2018-Jul-22 08:30N 29°33' W 090°41'2 3.8
2018-Jul-22 07:59N 29°34' W 090°43'2 5.0
2018-Jul-22 07:30N 29°33' W 090°45'4 7.4
2018-Jul-22 06:58N 29°32' W 090°50'4 8.3
2018-Jul-22 06:30N 29°33' W 090°54'6 7.7
2018-Jul-22 05:47N 29°37' W 090°59'2 7.6
2018-Jul-22 05:30N 29°37' W 091°01'2 2.6
2018-Jul-22 04:46N 29°39' W 091°02'2 2.5
2018-Jul-22 04:11N 29°38' W 091°03'1 3.1
2018-Jul-22 03:56N 29°37' W 091°03'2 4.1
2018-Jul-22 03:29N 29°37' W 091°01'2 3.7
2018-Jul-22 03:00N 29°37' W 090°59'2 3.9
2018-Jul-22 02:30N 29°35' W 090°58'2 4.0
2018-Jul-22 01:59N 29°34' W 090°56'3 4.1
2018-Jul-22 01:21N 29°33' W 090°53'5 3.8
2018-Jul-22 00:01N 29°32' W 090°47'0 3.8
2018-Jul-21 23:58N 29°32' W 090°47'2 3.3
2018-Jul-21 23:28N 29°33' W 090°45'2 3.4
2018-Jul-21 23:00N 29°34' W 090°44'1 2.2
2018-Jul-21 22:30N 29°34' W 090°43'1 2.1
2018-Jul-21 22:00N 29°33' W 090°42'2 3.6
2018-Jul-21 21:30N 29°32' W 090°42'11 3.8
2018-Jul-21 18:36N 29°20' W 090°44'0 3.6
2018-Jul-21 18:30N 29°20' W 090°44'3 4.0
2018-Jul-21 17:51N 29°18' W 090°43'2 4.0
2018-Jul-21 17:26N 29°16' W 090°42'16 3.1
2018-Jul-21 12:21N 29°02' W 090°33'0 0.7
2018-Jul-21 11:51N 29°02' W 090°33'11 3.9
2018-Jul-21 09:07N 29°12' W 090°38'1 4.3
2018-Jul-21 08:53N 29°13' W 090°39'3 5.0
2018-Jul-21 08:13N 29°16' W 090°41'2 5.5
2018-Jul-21 07:49N 29°17' W 090°43'4 5.2
2018-Jul-21 07:03N 29°21' W 090°44'0 5.3
2018-Jul-21 06:59N 29°22' W 090°44'0 0.7
2018-Jul-21 06:30N 29°22' W 090°44'0 0.0
2018-Jul-21 05:55N 29°22' W 090°44'0 0.0
2018-Jul-21 05:24N 29°22' W 090°44'0 0.0
2018-Jul-21 03:54N 29°22' W 090°44'8 5.4
2018-Jul-21 02:26N 29°30' W 090°43'3 7.5
2018-Jul-21 02:00N 29°33' W 090°42'1 1.0
2018-Jul-21 01:28N 29°33' W 090°41'0 0.0
2018-Jul-21 00:57N 29°33' W 090°41'0 0.0
2018-Jul-21 00:30N 29°33' W 090°41'0 0.0
2018-Jul-21 00:00N 29°33' W 090°41'0 0.0
2018-Jul-20 23:29N 29°33' W 090°41'2 4.1
2018-Jul-20 23:00N 29°34' W 090°43'0 0.0
2018-Jul-20 22:29N 29°34' W 090°43'1 1.2
2018-Jul-20 22:00N 29°35' W 090°43'0 0.0
2018-Jul-20 21:30N 29°35' W 090°43'0 0.0
2018-Jul-20 20:58N 29°35' W 090°43'0 0.0
2018-Jul-20 20:30N 29°35' W 090°43'0 0.0
2018-Jul-20 20:00N 29°35' W 090°43'0 0.0
2018-Jul-20 19:30N 29°35' W 090°43'0 0.0
2018-Jul-20 18:59N 29°35' W 090°43'0 0.0
2018-Jul-20 18:25N 29°35' W 090°43'0 0.0
2018-Jul-20 18:00N 29°35' W 090°43'0 0.0
2018-Jul-20 17:30N 29°35' W 090°43'0 0.0
2018-Jul-20 17:00N 29°35' W 090°43'0 0.0
2018-Jul-20 16:30N 29°35' W 090°43'0 0.0
2018-Jul-20 16:00N 29°35' W 090°43'0 0.0
2018-Jul-20 15:29N 29°35' W 090°43'0 0.0
2018-Jul-20 15:00N 29°35' W 090°43'0 0.0
2018-Jul-20 14:28N 29°35' W 090°43'0 0.0
2018-Jul-20 14:00N 29°35' W 090°43'0 0.0
2018-Jul-20 13:30N 29°35' W 090°43'0 0.0
2018-Jul-20 13:00N 29°35' W 090°43'0 0.0
2018-Jul-20 12:30N 29°35' W 090°43'0 0.0
2018-Jul-20 12:00N 29°35' W 090°43'0 0.1
2018-Jul-20 11:30N 29°35' W 090°43'0 0.5
2018-Jul-20 11:00N 29°35' W 090°43'2 0.1
2018-Jul-19 14:34N 29°33' W 090°41'0 4.8
2018-Jul-19 14:30N 29°33' W 090°42'1 1.0
2018-Jul-19 13:30N 29°33' W 090°43'0 0.7
2018-Jul-19 13:00N 29°33' W 090°42'1 0.1
2018-Jul-18 23:13N 29°33' W 090°41'1 3.8
2018-Jul-18 23:00N 29°33' W 090°42'3 0.1
2018-Jul-17 15:55N 29°30' W 090°43'3 7.1
2018-Jul-17 15:30N 29°32' W 090°42'2 3.8
2018-Jul-17 15:00N 29°34' W 090°43'3 5.2
2018-Jul-17 14:30N 29°32' W 090°46'25 4.3
2018-Jul-17 08:44N 29°32' W 091°14'  
Track history (hours):
 
Tides and Currents Weather Stations Pressure Air Temp Water Temp Dewpoint Dewpoint Depression Visibility Wind Speed Wind Dir Waves Ship Positions

Sea Otter

Owner: GARBER BROTHERS INC, MORGAN CITY, LA. More information available from US FCC via Universal Licensing System and Coast Guard Vessel Documentation Center.

Last reported at 2018-Jul-22 08:36 UTC. Time now 2018-Jul-23 11:47 UTC.
Position N 29°33' W 090°41'.

Length 21 m.

Type: Other ship. MMSI: 367621940.

Date/timePositionNaut miles runAvg speedWind from/ knotsBaromVisibWave heightAir tempDewpointWater temp
2018-Jul-22 08:36N 29°33' W 090°41'0 0.1
2018-Jul-22 08:30N 29°33' W 090°41'2 3.8
2018-Jul-22 07:59N 29°34' W 090°43'2 5.0
2018-Jul-22 07:30N 29°33' W 090°45'4 7.4
2018-Jul-22 06:58N 29°32' W 090°50'4 8.3
2018-Jul-22 06:30N 29°33' W 090°54'6 7.7
2018-Jul-22 05:47N 29°37' W 090°59'2 7.6
2018-Jul-22 05:30N 29°37' W 091°01'2 2.6
2018-Jul-22 04:46N 29°39' W 091°02'2 2.5
2018-Jul-22 04:11N 29°38' W 091°03'1 3.1
2018-Jul-22 03:56N 29°37' W 091°03'2 4.1
2018-Jul-22 03:29N 29°37' W 091°01'2 3.7
2018-Jul-22 03:00N 29°37' W 090°59'2 3.9
2018-Jul-22 02:30N 29°35' W 090°58'2 4.0
2018-Jul-22 01:59N 29°34' W 090°56'3 4.1
2018-Jul-22 01:21N 29°33' W 090°53'5 3.8
2018-Jul-22 00:01N 29°32' W 090°47'0 3.8
2018-Jul-21 23:58N 29°32' W 090°47'2 3.3
2018-Jul-21 23:28N 29°33' W 090°45'2 3.4
2018-Jul-21 23:00N 29°34' W 090°44'1 2.2
2018-Jul-21 22:30N 29°34' W 090°43'1 2.1
2018-Jul-21 22:00N 29°33' W 090°42'2 3.6
2018-Jul-21 21:30N 29°32' W 090°42'11 3.8
2018-Jul-21 18:36N 29°20' W 090°44'0 3.6
2018-Jul-21 18:30N 29°20' W 090°44'3 4.0
2018-Jul-21 17:51N 29°18' W 090°43'2 4.0
2018-Jul-21 17:26N 29°16' W 090°42'16 3.1
2018-Jul-21 12:21N 29°02' W 090°33'0 0.7
2018-Jul-21 11:51N 29°02' W 090°33'11 3.9
2018-Jul-21 09:07N 29°12' W 090°38'1 4.3
2018-Jul-21 08:53N 29°13' W 090°39'3 5.0
2018-Jul-21 08:13N 29°16' W 090°41'2 5.5
2018-Jul-21 07:49N 29°17' W 090°43'4 5.2
2018-Jul-21 07:03N 29°21' W 090°44'0 5.3
2018-Jul-21 06:59N 29°22' W 090°44'0 0.7
2018-Jul-21 06:30N 29°22' W 090°44'0 0.0
2018-Jul-21 05:55N 29°22' W 090°44'0 0.0
2018-Jul-21 05:24N 29°22' W 090°44'0 0.0
2018-Jul-21 03:54N 29°22' W 090°44'8 5.4
2018-Jul-21 02:26N 29°30' W 090°43'3 7.5
2018-Jul-21 02:00N 29°33' W 090°42'1 1.0
2018-Jul-21 01:28N 29°33' W 090°41'0 0.0
2018-Jul-21 00:57N 29°33' W 090°41'0 0.0
2018-Jul-21 00:30N 29°33' W 090°41'0 0.0
2018-Jul-21 00:00N 29°33' W 090°41'0 0.0
2018-Jul-20 23:29N 29°33' W 090°41'2 4.1
2018-Jul-20 23:00N 29°34' W 090°43'0 0.0
2018-Jul-20 22:29N 29°34' W 090°43'1 1.2
2018-Jul-20 22:00N 29°35' W 090°43'0 0.0
2018-Jul-20 21:30N 29°35' W 090°43'0 0.0
2018-Jul-20 20:58N 29°35' W 090°43'0 0.0
2018-Jul-20 20:30N 29°35' W 090°43'0 0.0
2018-Jul-20 20:00N 29°35' W 090°43'0 0.0
2018-Jul-20 19:30N 29°35' W 090°43'0 0.0
2018-Jul-20 18:59N 29°35' W 090°43'0 0.0
2018-Jul-20 18:25N 29°35' W 090°43'0 0.0
2018-Jul-20 18:00N 29°35' W 090°43'0 0.0
2018-Jul-20 17:30N 29°35' W 090°43'0 0.0
2018-Jul-20 17:00N 29°35' W 090°43'0 0.0
2018-Jul-20 16:30N 29°35' W 090°43'0 0.0
2018-Jul-20 16:00N 29°35' W 090°43'0 0.0
2018-Jul-20 15:29N 29°35' W 090°43'0 0.0
2018-Jul-20 15:00N 29°35' W 090°43'0 0.0
2018-Jul-20 14:28N 29°35' W 090°43'0 0.0
2018-Jul-20 14:00N 29°35' W 090°43'0 0.0
2018-Jul-20 13:30N 29°35' W 090°43'0 0.0
2018-Jul-20 13:00N 29°35' W 090°43'0 0.0
2018-Jul-20 12:30N 29°35' W 090°43'0 0.0
2018-Jul-20 12:00N 29°35' W 090°43'0 0.1
2018-Jul-20 11:30N 29°35' W 090°43'0 0.5
2018-Jul-20 11:00N 29°35' W 090°43'2 0.1
2018-Jul-19 14:34N 29°33' W 090°41'0 4.8
2018-Jul-19 14:30N 29°33' W 090°42'1 1.0
2018-Jul-19 13:30N 29°33' W 090°43'0 0.7
2018-Jul-19 13:00N 29°33' W 090°42'1 0.1
2018-Jul-18 23:13N 29°33' W 090°41'1 3.8
2018-Jul-18 23:00N 29°33' W 090°42'3 0.1
2018-Jul-17 15:55N 29°30' W 090°43'3 7.1
2018-Jul-17 15:30N 29°32' W 090°42'2 3.8
2018-Jul-17 15:00N 29°34' W 090°43'3 5.2
2018-Jul-17 14:30N 29°32' W 090°46'25 4.3
2018-Jul-17 08:44N 29°32' W 091°14'  

Dump ship's entire track history